Nearby METAR Reports

 

KRUE - Russellville, Arkansas, USA
Distance from station: ESE 28mi, 45km
Updated: Wed, 21-Feb-2018 8:53am CST
Rain, Mist, Overcast
Rain, Mist, Overcast
 Wind from NW
Wind: NW 5 mph , 7 km/h
Temperature: 41°F , 5°C
Wind Chill: 38°F , 3°C
Dew Point: 39°F , 4°C
Humidity: 93%
Barometer: 30.37 inHg , 1028.4 hPa
Summary: Rain, Mist
Clouds: Overcast
Visibility: 6 miles , 10 km
Cloud details: Mostly cloudy 1200 ft
Mostly cloudy 1800 ft
Overcast 7000 ft
2018/02/21 14:53 KRUE 211453Z AUTO 31004KT 6SM RA BR BKN012 BKN018 OVC070 05/04 A3037 RMK AO2 PRESRR SLP282 P0008 60022 T00500044 53026
KFSM - Fort Smith, Arkansas, USA
Distance from station: W 48mi, 77km
Updated: Wed, 21-Feb-2018 8:53am CST
Light rain, Overcast
Light rain, Overcast
 Wind from WNW
Wind: WNW 8 mph , 13 km/h
Temperature: 37°F , 3°C
Wind Chill: 31°F , -1°C
Dew Point: 36°F , 2°C
Humidity: 93%
Barometer: 30.41 inHg , 1029.8 hPa
Summary: Light rain
Clouds: Overcast
Visibility: 10 miles , 16 km
Cloud details: Overcast 1500 ft
2018/02/21 14:53 KFSM 211453Z 29007KT 10SM -RA OVC015 03/02 A3041 RMK AO2 RAE1354B45 PRESRR SLP301 P0000 60000 T00330017 53034
 
KFYV - Fayetteville, Arkansas, USA
Distance from station: NW 52mi, 84km
Updated: Wed, 21-Feb-2018 8:53am CST
Overcast
Overcast
 Wind from NE
Wind: NE 7 mph , 11 km/h
Temperature: 30°F , -1°C
Wind Chill: 23°F , -5°C
Dew Point: 30°F , -1°C
Humidity: 100%
Barometer: 30.40 inHg , 1029.5 hPa
Clouds: Overcast
Visibility: 10 miles , 16 km
Cloud details: Overcast 600 ft
2018/02/21 14:53 KFYV 211453Z 04006KT 10SM OVC006 M01/M01 A3040 RMK AO2 SLP305 T10111011 53027
KASG - Springdale Muni, Arkansas, USA
Distance from station: NW 59mi, 95km
Updated: Wed, 21-Feb-2018 8:48am CST
Overcast
Overcast
 Wind from NNE
Wind: NNE 6 mph , 9 km/h, Gust: 17 mph , 28 km/h
Temperature: 28°F , -2°C
Wind Chill: 21°F , -6°C
Dew Point: 36°F , 2°C
Humidity: 133%
Barometer: 30.42 inHg , 1030.1 hPa
Clouds: Overcast
Visibility: 7 miles , 11 km
Cloud details: Overcast 500 ft
2018/02/21 14:48 KASG 211448Z 02005G15KT 7SM OVC005 M02/02 A3042
 
KHRO - Harrison, Arkansas, USA
Distance from station: NNE 60mi, 96km
Updated: Wed, 21-Feb-2018 8:53am CST
Mist, Overcast
Mist, Overcast
 Wind from NW
Wind: NW 5 mph , 7 km/h
Temperature: 30°F , -1°C
Wind Chill: 25°F , -4°C
Dew Point: 30°F , -1°C
Humidity: 100%
Barometer: 30.40 inHg , 1029.5 hPa
Summary: Mist
Clouds: Overcast
Visibility: 6 miles , 10 km
Cloud details: Overcast 400 ft
2018/02/21 14:53 KHRO 211453Z AUTO 32004KT 6SM BR OVC004 M01/M01 A3040 RMK AO2 SLP305 6//// T10111011 51023 PNO $
KCCA - Clinton Muni, Arkansas, USA
Distance from station: E 61mi, 99km
Updated: Wed, 21-Feb-2018 9:15am CST
Light rain, Overcast
Light rain, Overcast
 Wind from N
Wind: N 7 mph , 11 km/h, Gust: 15 mph , 24 km/h
Temperature: 37°F , 3°C
Wind Chill: 32°F , 0°C
Dew Point: 36°F , 2°C
Humidity: 93%
Barometer: 30.39 inHg , 1029.1 hPa
Summary: Light rain
Clouds: Overcast
Visibility: 3 miles , 5 km
Cloud details: Overcast 1600 ft
2018/02/21 15:15 KCCA 211515Z AUTO 36006G13KT 3SM -RA OVC016 03/02 A3039 RMK AO2